Time;durP1;ratioP1;P1;durP2;ratioP2;P2;SDS_P1;SDS_P2;PMS_P1;PMS_P2;Temp;Humidity;BMP_temperature;BMP_pressure;BME280_temperature;BME280_humidity;BME280_pressure;Samples;Min_cycle;Max_cycle;Signal;HPM_P1;HPM_P2
2023/05/05 00:02:11;;;;;;;8.18;4.78;;;;;;;;;;4972612;28;25059;-78
2023/05/05 00:04:37;;;;;;;7.82;4.40;;;;;;;;;;4963606;28;25452;-78
2023/05/05 00:07:06;;;;;;;7.28;3.40;;;;;;;;;;4971135;28;25073;-75
2023/05/05 00:09:32;;;;;;;5.20;2.80;;;;;;;;;;4965881;28;25074;-76
2023/05/05 00:11:58;;;;;;;6.75;2.60;;;;;;;;;;4965515;28;25082;-76
2023/05/05 00:14:24;;;;;;;2.70;2.20;;;;;;;;;;4971672;28;25077;-74
2023/05/05 00:16:50;;;;;;;7.25;1.80;;;;;;;;;;4971121;28;25063;-76
2023/05/05 00:19:16;;;;;;;1.50;1.40;;;;;;;;;;4961866;28;25079;-76
2023/05/05 00:21:42;;;;;;;1.88;1.30;;;;;;;;;;4965378;28;25099;-77
2023/05/05 00:24:09;;;;;;;2.90;1.30;;;;;;;;;;4964837;28;25061;-77
2023/05/05 00:26:35;;;;;;;2.50;1.55;;;;;;;;;;4968663;28;25075;-77
2023/05/05 00:29:01;;;;;;;1.20;1.13;;;;;;;;;;4978790;28;25077;-78
2023/05/05 00:31:27;;;;;;;3.22;1.55;;;;;;;;;;4962310;28;25059;-76
2023/05/05 00:33:53;;;;;;;1.30;1.20;;;;;;;;;;4960987;28;25087;-77
2023/05/05 00:36:19;;;;;;;4.15;1.65;;;;;;;;;;4959054;28;25086;-77
2023/05/05 00:38:45;;;;;;;1.08;0.98;;;;;;;;;;4960185;28;25159;-77
2023/05/05 00:41:11;;;;;;;1.92;1.23;;;;;;;;;;4963772;28;25073;-77
2023/05/05 00:43:37;;;;;;;3.92;1.30;;;;;;;;;;4970078;28;25168;-77
2023/05/05 00:46:14;;;;;;;2.67;1.17;;;;;;;;;;4959435;28;25150;-78
2023/05/05 00:48:40;;;;;;;2.42;1.20;;;;;;;;;;4962503;28;25052;-78
2023/05/05 00:51:08;;;;;;;2.20;1.10;;;;;;;;;;4963596;28;25059;-76
2023/05/05 00:53:34;;;;;;;1.70;1.25;;;;;;;;;;4961866;28;25112;-77
2023/05/05 00:56:00;;;;;;;2.60;0.98;;;;;;;;;;4979415;28;25055;-77
2023/05/05 00:58:27;;;;;;;2.22;1.17;;;;;;;;;;4957641;28;25065;-78
2023/05/05 01:00:53;;;;;;;5.35;2.42;;;;;;;;;;4959402;28;25146;-77
2023/05/05 01:03:20;;;;;;;1.73;1.40;;;;;;;;;;4962923;28;25135;-77
2023/05/05 01:05:49;;;;;;;2.55;1.20;;;;;;;;;;4977796;28;25070;-78
2023/05/05 01:08:25;;;;;;;2.72;1.00;;;;;;;;;;4966891;28;25072;-78
2023/05/05 01:11:12;;;;;;;1.88;0.90;;;;;;;;;;4962016;28;25062;-76
2023/05/05 01:13:44;;;;;;;2.78;1.00;;;;;;;;;;4964116;28;25074;-78
2023/05/05 01:16:14;;;;;;;1.73;0.90;;;;;;;;;;4959938;28;25087;-79
2023/05/05 01:18:43;;;;;;;0.95;0.80;;;;;;;;;;4962189;28;25078;-76
2023/05/05 01:21:14;;;;;;;3.97;1.15;;;;;;;;;;4967299;28;25102;-79
2023/05/05 01:23:47;;;;;;;2.05;1.13;;;;;;;;;;4965625;28;25079;-79
2023/05/05 01:26:32;;;;;;;2.83;1.05;;;;;;;;;;4981798;28;25062;-76
2023/05/05 01:29:17;;;;;;;1.55;1.38;;;;;;;;;;4963878;28;25114;-78
2023/05/05 01:32:12;;;;;;;1.58;1.13;;;;;;;;;;4967444;28;25148;-78
2023/05/05 01:34:41;;;;;;;2.85;1.08;;;;;;;;;;4950971;28;25072;-78
2023/05/05 01:37:17;;;;;;;2.15;1.00;;;;;;;;;;4974236;28;25070;-76
2023/05/05 01:39:44;;;;;;;2.00;1.20;;;;;;;;;;4971729;28;25074;-76
2023/05/05 01:42:14;;;;;;;2.22;1.30;;;;;;;;;;4977969;28;25079;-76
2023/05/05 01:44:42;;;;;;;3.15;1.05;;;;;;;;;;4968773;28;25072;-79
2023/05/05 01:47:09;;;;;;;2.58;1.33;;;;;;;;;;4967129;28;25073;-78
2023/05/05 01:49:36;;;;;;;3.28;1.42;;;;;;;;;;4962285;28;25046;-79
2023/05/05 01:52:04;;;;;;;2.05;1.30;;;;;;;;;;4964903;28;25075;-78
2023/05/05 01:54:33;;;;;;;2.25;1.20;;;;;;;;;;4974819;28;25070;-78
2023/05/05 01:56:59;;;;;;;2.08;1.20;;;;;;;;;;4964405;28;25060;-78
2023/05/05 01:59:26;;;;;;;5.00;1.75;;;;;;;;;;4965645;28;25063;-76
2023/05/05 02:01:52;;;;;;;4.97;1.85;;;;;;;;;;4960548;28;25097;-78
2023/05/05 02:04:21;;;;;;;3.30;1.40;;;;;;;;;;4966002;28;25054;-78
2023/05/05 02:06:50;;;;;;;6.43;1.88;;;;;;;;;;4963220;28;25075;-78
2023/05/05 02:09:16;;;;;;;2.22;1.40;;;;;;;;;;4967041;28;25071;-78
2023/05/05 02:11:42;;;;;;;11.73;2.30;;;;;;;;;;4968413;28;25070;-79
2023/05/05 02:14:10;;;;;;;4.30;1.90;;;;;;;;;;4976533;28;25064;-77
2023/05/05 02:16:36;;;;;;;6.30;2.00;;;;;;;;;;4978757;28;25063;-76
2023/05/05 02:19:03;;;;;;;3.92;1.80;;;;;;;;;;4980669;28;25066;-79
2023/05/05 02:21:30;;;;;;;2.63;1.70;;;;;;;;;;4972618;28;25070;-77
2023/05/05 02:23:57;;;;;;;5.43;1.80;;;;;;;;;;4969379;28;25058;-78
2023/05/05 02:26:23;;;;;;;3.33;1.90;;;;;;;;;;4965287;28;25169;-79
2023/05/05 02:28:49;;;;;;;5.28;2.30;;;;;;;;;;4964688;28;25081;-77
2023/05/05 02:31:16;;;;;;;3.08;2.00;;;;;;;;;;4968114;28;25069;-77
2023/05/05 02:33:42;;;;;;;9.60;2.40;;;;;;;;;;4965776;28;25088;-78
2023/05/05 02:36:14;;;;;;;5.65;2.53;;;;;;;;;;4964874;28;25057;-78
2023/05/05 02:38:41;;;;;;;6.00;2.70;;;;;;;;;;4962854;28;25094;-78
2023/05/05 02:41:09;;;;;;;9.98;2.20;;;;;;;;;;4965635;28;25074;-79
2023/05/05 02:43:35;;;;;;;5.72;1.88;;;;;;;;;;4960669;28;25069;-78
2023/05/05 02:46:01;;;;;;;5.50;1.95;;;;;;;;;;4963448;28;25096;-78
2023/05/05 02:48:29;;;;;;;9.68;2.40;;;;;;;;;;4962924;28;25067;-77
2023/05/05 02:50:55;;;;;;;7.68;2.28;;;;;;;;;;4965698;28;25068;-79
2023/05/05 02:53:24;;;;;;;6.07;2.33;;;;;;;;;;4972870;28;25052;-78
2023/05/05 02:55:52;;;;;;;4.65;1.95;;;;;;;;;;4963571;28;25065;-77
2023/05/05 02:58:34;;;;;;;4.97;2.03;;;;;;;;;;4966494;28;25073;-79
2023/05/05 03:01:15;;;;;;;2.40;2.03;;;;;;;;;;4969890;28;25061;-78
2023/05/05 03:03:47;;;;;;;6.23;2.47;;;;;;;;;;4974123;28;25063;-78
2023/05/05 03:06:21;;;;;;;4.80;2.22;;;;;;;;;;4970439;28;25059;-78
2023/05/05 03:08:53;;;;;;;7.57;3.05;;;;;;;;;;4962909;28;25056;-77
2023/05/05 03:11:19;;;;;;;;;;;;;;;;;;4975954;28;25045;-75
2023/05/05 03:13:49;;;;;;;6.05;2.47;;;;;;;;;;4961796;28;24108;-80
2023/05/05 03:16:15;;;;;;;6.20;2.72;;;;;;;;;;4963369;28;25055;-77
2023/05/05 03:18:42;;;;;;;5.03;3.55;;;;;;;;;;4967363;28;25128;-78
2023/05/05 03:21:08;;;;;;;6.43;3.08;;;;;;;;;;4959750;28;25072;-78
2023/05/05 03:23:35;;;;;;;4.25;2.85;;;;;;;;;;4962193;28;25050;-78
2023/05/05 03:26:03;;;;;;;4.55;3.45;;;;;;;;;;4965924;28;25081;-77
2023/05/05 03:28:29;;;;;;;11.02;3.92;;;;;;;;;;4972251;28;25063;-79
2023/05/05 03:30:55;;;;;;;13.88;4.53;;;;;;;;;;4977540;28;25068;-78
2023/05/05 03:33:21;;;;;;;8.77;4.57;;;;;;;;;;4971963;28;25075;-79
2023/05/05 03:35:47;;;;;;;10.70;4.25;;;;;;;;;;4975928;28;25144;-77
2023/05/05 03:38:13;;;;;;;11.63;5.38;;;;;;;;;;4966487;28;25049;-79
2023/05/05 03:40:39;;;;;;;14.48;5.20;;;;;;;;;;4977187;28;25083;-79
2023/05/05 03:43:06;;;;;;;8.75;4.70;;;;;;;;;;4972293;28;25057;-77
2023/05/05 03:45:32;;;;;;;12.82;6.40;;;;;;;;;;4973546;28;25067;-78
2023/05/05 03:47:58;;;;;;;11.65;6.38;;;;;;;;;;4976623;28;25069;-78
2023/05/05 03:50:24;;;;;;;10.73;6.25;;;;;;;;;;4968134;28;25084;-79
2023/05/05 03:52:50;;;;;;;15.75;6.55;;;;;;;;;;4970170;28;25047;-79
2023/05/05 03:55:16;;;;;;;13.73;5.95;;;;;;;;;;4968393;28;25077;-78
2023/05/05 03:57:44;;;;;;;12.32;6.63;;;;;;;;;;4969722;28;25150;-77
2023/05/05 04:00:11;;;;;;;15.98;6.80;;;;;;;;;;4986187;28;25074;-79
2023/05/05 04:02:37;;;;;;;18.67;7.57;;;;;;;;;;4969328;28;25080;-79
2023/05/05 04:05:03;;;;;;;10.77;6.28;;;;;;;;;;4967048;28;25062;-78
2023/05/05 04:07:29;;;;;;;14.73;7.30;;;;;;;;;;4972386;28;25077;-76
2023/05/05 04:09:55;;;;;;;12.25;7.38;;;;;;;;;;4974242;28;25059;-77
2023/05/05 04:12:21;;;;;;;19.17;8.63;;;;;;;;;;4975194;28;25080;-76
2023/05/05 04:14:47;;;;;;;15.05;8.52;;;;;;;;;;4981081;28;25064;-76
2023/05/05 04:17:13;;;;;;;21.40;9.82;;;;;;;;;;4966924;28;25057;-76
2023/05/05 04:19:39;;;;;;;25.65;10.95;;;;;;;;;;4964818;28;25053;-77
2023/05/05 04:22:05;;;;;;;20.75;10.68;;;;;;;;;;4978215;28;25054;-74
2023/05/05 04:24:31;;;;;;;17.83;10.85;;;;;;;;;;4977856;28;25079;-78
2023/05/05 04:26:58;;;;;;;19.00;10.75;;;;;;;;;;4976839;28;25113;-78
2023/05/05 04:29:24;;;;;;;22.17;11.13;;;;;;;;;;4975577;28;25054;-78
2023/05/05 04:31:50;;;;;;;20.70;11.43;;;;;;;;;;4964945;28;25055;-80
2023/05/05 04:34:16;;;;;;;21.77;12.20;;;;;;;;;;4974179;28;25058;-80
2023/05/05 04:36:42;;;;;;;18.60;10.85;;;;;;;;;;4978468;28;25089;-79
2023/05/05 04:39:08;;;;;;;19.73;12.35;;;;;;;;;;4971249;28;25074;-77
2023/05/05 04:41:34;;;;;;;21.80;13.77;;;;;;;;;;4971386;28;25072;-77
2023/05/05 04:44:00;;;;;;;20.20;12.35;;;;;;;;;;4967240;28;25056;-78
2023/05/05 04:46:26;;;;;;;20.80;12.35;;;;;;;;;;4960100;28;25150;-79
2023/05/05 04:48:52;;;;;;;23.00;12.95;;;;;;;;;;4972551;28;25081;-78
2023/05/05 04:51:18;;;;;;;27.75;13.68;;;;;;;;;;4970009;28;25076;-80
2023/05/05 04:53:44;;;;;;;19.17;13.27;;;;;;;;;;4993940;28;25068;-76
2023/05/05 04:56:10;;;;;;;20.73;12.02;;;;;;;;;;4983605;28;25074;-76
2023/05/05 04:58:36;;;;;;;22.15;12.90;;;;;;;;;;4979047;28;25078;-77
2023/05/05 05:01:02;;;;;;;24.35;13.65;;;;;;;;;;4985680;28;25076;-78
2023/05/05 05:03:30;;;;;;;21.83;13.02;;;;;;;;;;4970582;28;25085;-79
2023/05/05 05:05:56;;;;;;;19.52;13.05;;;;;;;;;;4972703;28;25061;-78
2023/05/05 05:08:22;;;;;;;21.98;14.43;;;;;;;;;;4962562;28;25052;-78
2023/05/05 05:10:48;;;;;;;24.20;12.57;;;;;;;;;;4962316;28;25071;-80
2023/05/05 05:13:14;;;;;;;21.25;13.68;;;;;;;;;;4956854;28;25058;-78
2023/05/05 05:15:40;;;;;;;21.17;13.23;;;;;;;;;;4965427;28;25096;-81
2023/05/05 05:18:06;;;;;;;23.33;13.68;;;;;;;;;;4961062;28;25073;-78
2023/05/05 05:20:32;;;;;;;22.02;13.32;;;;;;;;;;4961819;28;25071;-79
2023/05/05 05:23:00;;;;;;;20.73;12.93;;;;;;;;;;4957257;28;25088;-81
2023/05/05 05:25:27;;;;;;;23.55;12.95;;;;;;;;;;4960550;28;25067;-79
2023/05/05 05:27:53;;;;;;;26.02;13.85;;;;;;;;;;4955954;28;25076;-78
2023/05/05 05:30:19;;;;;;;24.45;12.80;;;;;;;;;;4955950;28;25089;-78
2023/05/05 05:32:45;;;;;;;20.92;13.07;;;;;;;;;;4960013;28;25537;-79
2023/05/05 05:35:11;;;;;;;19.80;12.95;;;;;;;;;;4955361;28;25074;-79
2023/05/05 05:37:37;;;;;;;20.80;13.00;;;;;;;;;;4958716;28;25148;-79
2023/05/05 05:40:04;;;;;;;20.45;12.45;;;;;;;;;;4960912;28;25137;-80
2023/05/05 05:42:30;;;;;;;21.90;13.20;;;;;;;;;;4957387;28;25103;-78
2023/05/05 05:44:57;;;;;;;17.30;12.00;;;;;;;;;;4957390;28;25076;-79
2023/05/05 05:47:23;;;;;;;16.02;12.20;;;;;;;;;;4962681;28;25148;-80
2023/05/05 05:49:49;;;;;;;18.50;12.70;;;;;;;;;;4956523;28;25146;-80
2023/05/05 05:52:15;;;;;;;22.13;13.27;;;;;;;;;;4960053;28;25159;-79
2023/05/05 05:54:41;;;;;;;20.25;12.07;;;;;;;;;;4975018;28;25154;-80
2023/05/05 05:57:07;;;;;;;19.38;12.35;;;;;;;;;;4973204;28;25052;-79
2023/05/05 05:59:33;;;;;;;17.60;12.35;;;;;;;;;;4961734;28;25074;-79
2023/05/05 06:01:59;;;;;;;17.20;11.75;;;;;;;;;;4960427;28;25078;-79
2023/05/05 06:04:25;;;;;;;17.73;11.80;;;;;;;;;;4970230;28;25058;-78
2023/05/05 06:06:51;;;;;;;19.67;12.50;;;;;;;;;;4956960;28;25060;-80
2023/05/05 06:09:17;;;;;;;19.38;12.93;;;;;;;;;;4959638;28;25086;-80
2023/05/05 06:11:43;;;;;;;22.15;11.82;;;;;;;;;;4964428;28;25070;-78
2023/05/05 06:14:09;;;;;;;20.85;12.10;;;;;;;;;;4964582;28;25087;-79
2023/05/05 06:16:35;;;;;;;21.48;12.68;;;;;;;;;;4959180;28;25047;-79
2023/05/05 06:19:01;;;;;;;18.58;11.02;;;;;;;;;;4963052;28;25178;-79
2023/05/05 06:21:27;;;;;;;17.95;11.77;;;;;;;;;;4951321;28;25051;-79
2023/05/05 06:23:53;;;;;;;19.08;11.98;;;;;;;;;;4953349;28;25117;-80
2023/05/05 06:26:20;;;;;;;20.85;11.68;;;;;;;;;;4951331;28;25053;-79
2023/05/05 06:28:46;;;;;;;19.33;11.85;;;;;;;;;;4951513;28;25148;-79
2023/05/05 06:31:13;;;;;;;20.73;10.68;;;;;;;;;;4953731;28;25066;-78
2023/05/05 06:33:39;;;;;;;18.00;11.55;;;;;;;;;;4952770;28;25056;-78
2023/05/05 06:36:05;;;;;;;21.88;11.35;;;;;;;;;;4951393;28;25065;-79
2023/05/05 06:38:31;;;;;;;20.27;11.68;;;;;;;;;;4952584;28;25070;-78
2023/05/05 06:40:57;;;;;;;18.83;11.18;;;;;;;;;;4951360;28;25177;-80
2023/05/05 06:43:23;;;;;;;22.45;10.98;;;;;;;;;;4966983;28;25127;-79
2023/05/05 06:45:49;;;;;;;18.67;10.73;;;;;;;;;;4953241;28;25067;-78
2023/05/05 06:48:15;;;;;;;15.82;9.82;;;;;;;;;;4961485;28;25057;-78
2023/05/05 06:50:41;;;;;;;16.42;8.93;;;;;;;;;;4959690;28;25084;-78
2023/05/05 06:53:07;;;;;;;17.35;8.80;;;;;;;;;;4951236;28;25117;-80
2023/05/05 06:55:33;;;;;;;17.05;8.10;;;;;;;;;;4953062;28;25094;-78
2023/05/05 06:57:59;;;;;;;16.67;8.77;;;;;;;;;;4950699;28;25126;-80
2023/05/05 07:00:25;;;;;;;15.32;8.98;;;;;;;;;;4948130;28;25150;-78
2023/05/05 07:02:51;;;;;;;16.30;7.38;;;;;;;;;;4948496;28;25083;-76
2023/05/05 07:05:17;;;;;;;14.40;8.27;;;;;;;;;;4952071;28;25064;-79
2023/05/05 07:07:51;;;;;;;12.80;6.47;;;;;;;;;;4953020;28;25080;-78
2023/05/05 07:10:17;;;;;;;12.45;7.57;;;;;;;;;;4952427;28;25066;-77
2023/05/05 07:12:43;;;;;;;18.35;7.90;;;;;;;;;;4949556;28;25075;-79
2023/05/05 07:15:09;;;;;;;11.73;5.80;;;;;;;;;;4953992;28;25104;-77
2023/05/05 07:17:35;;;;;;;12.65;6.22;;;;;;;;;;4954482;28;25071;-78
2023/05/05 07:20:01;;;;;;;9.30;5.50;;;;;;;;;;4947243;28;25073;-80
2023/05/05 07:22:27;;;;;;;7.55;5.28;;;;;;;;;;4953048;28;26275;-78
2023/05/05 07:24:53;;;;;;;10.35;5.50;;;;;;;;;;4947662;28;25115;-78
2023/05/05 07:27:21;;;;;;;9.07;5.07;;;;;;;;;;4947613;28;25061;-77
2023/05/05 07:29:47;;;;;;;12.68;5.93;;;;;;;;;;4947252;28;25144;-78
2023/05/05 07:32:14;;;;;;;11.57;5.68;;;;;;;;;;4948055;28;25088;-79
2023/05/05 07:34:40;;;;;;;8.57;5.45;;;;;;;;;;4949320;28;25137;-79
2023/05/05 07:37:06;;;;;;;8.65;4.68;;;;;;;;;;4947925;28;25092;-77
2023/05/05 07:39:33;;;;;;;8.23;5.18;;;;;;;;;;4950358;28;25081;-78
2023/05/05 07:42:00;;;;;;;8.13;6.05;;;;;;;;;;4952655;28;25056;-79
2023/05/05 07:44:26;;;;;;;9.93;5.70;;;;;;;;;;4957378;28;25126;-77
2023/05/05 07:46:52;;;;;;;10.50;4.82;;;;;;;;;;4954883;28;25153;-79
2023/05/05 07:49:18;;;;;;;6.78;4.95;;;;;;;;;;4957831;28;25083;-79
2023/05/05 07:51:44;;;;;;;12.40;5.53;;;;;;;;;;4949013;28;25081;-78
2023/05/05 07:54:11;;;;;;;8.43;5.88;;;;;;;;;;4961349;28;25085;-78
2023/05/05 07:56:37;;;;;;;10.10;5.70;;;;;;;;;;4956587;28;25085;-77
2023/05/05 07:59:03;;;;;;;10.27;5.05;;;;;;;;;;4953923;28;25058;-78
2023/05/05 08:01:29;;;;;;;10.90;5.35;;;;;;;;;;4960921;28;25060;-77
2023/05/05 08:03:55;;;;;;;9.88;5.45;;;;;;;;;;4974936;28;25090;-76
2023/05/05 08:06:22;;;;;;;17.63;5.53;;;;;;;;;;4975200;28;25053;-75
2023/05/05 08:08:48;;;;;;;10.00;5.22;;;;;;;;;;4973515;28;25066;-76
2023/05/05 08:11:15;;;;;;;11.70;5.38;;;;;;;;;;4965856;28;25078;-78
2023/05/05 08:13:44;;;;;;;6.82;4.40;;;;;;;;;;4962760;28;25058;-77
2023/05/05 08:16:10;;;;;;;5.05;3.20;;;;;;;;;;4970956;28;25076;-75
2023/05/05 08:18:37;;;;;;;7.55;3.85;;;;;;;;;;4954850;28;25134;-80
2023/05/05 08:21:06;;;;;;;9.65;4.38;;;;;;;;;;4958702;28;25146;-80
2023/05/05 08:23:33;;;;;;;7.88;3.90;;;;;;;;;;4956638;28;25085;-76
2023/05/05 08:25:59;;;;;;;5.25;3.78;;;;;;;;;;4954677;28;25065;-78
2023/05/05 08:28:25;;;;;;;7.95;4.40;;;;;;;;;;4960086;28;25065;-79
2023/05/05 08:30:51;;;;;;;10.13;4.57;;;;;;;;;;4952220;28;25099;-79
2023/05/05 08:33:17;;;;;;;65.45;7.78;;;;;;;;;;4953828;28;25049;-78
2023/05/05 08:35:43;;;;;;;3.50;2.20;;;;;;;;;;4960609;28;25076;-79
2023/05/05 08:38:09;;;;;;;5.85;2.88;;;;;;;;;;4956770;28;25078;-78
2023/05/05 08:40:36;;;;;;;7.35;2.80;;;;;;;;;;4953807;28;25058;-79
2023/05/05 08:43:03;;;;;;;7.13;3.78;;;;;;;;;;4959846;28;25076;-74
2023/05/05 08:45:29;;;;;;;10.60;5.50;;;;;;;;;;4953387;28;25151;-79
2023/05/05 08:48:02;;;;;;;16.13;6.10;;;;;;;;;;4959514;28;25062;-78
2023/05/05 08:50:28;;;;;;;18.67;7.38;;;;;;;;;;4964734;28;25052;-79
2023/05/05 08:52:58;;;;;;;16.95;9.02;;;;;;;;;;4957168;28;25096;-76
2023/05/05 08:55:25;;;;;;;16.85;7.68;;;;;;;;;;4951895;28;25084;-75
2023/05/05 08:58:01;;;;;;;11.52;6.38;;;;;;;;;;4956443;28;25051;-76
2023/05/05 09:00:28;;;;;;;11.77;4.35;;;;;;;;;;4962513;28;24973;-78
2023/05/05 09:02:55;;;;;;;12.25;3.92;;;;;;;;;;4953029;28;25069;-76
2023/05/05 09:05:21;;;;;;;7.40;3.42;;;;;;;;;;4965345;28;25073;-76
2023/05/05 09:07:47;;;;;;;9.02;5.03;;;;;;;;;;4950654;28;25079;-77
2023/05/05 09:10:14;;;;;;;8.95;4.00;;;;;;;;;;4956556;28;25054;-76
2023/05/05 09:12:41;;;;;;;9.57;4.30;;;;;;;;;;4958308;28;25082;-77
2023/05/05 09:15:10;;;;;;;11.35;4.80;;;;;;;;;;4956052;28;25156;-77
2023/05/05 09:17:37;;;;;;;7.53;4.70;;;;;;;;;;4950667;28;25094;-76
2023/05/05 09:20:03;;;;;;;7.15;4.72;;;;;;;;;;4950639;28;25055;-78
2023/05/05 09:22:36;;;;;;;7.88;4.03;;;;;;;;;;4957477;28;25094;-79
2023/05/05 09:25:02;;;;;;;9.90;5.05;;;;;;;;;;4963869;28;25061;-78
2023/05/05 09:27:28;;;;;;;8.85;5.63;;;;;;;;;;4953061;28;25110;-77
2023/05/05 09:29:55;;;;;;;14.02;7.28;;;;;;;;;;4950832;28;25053;-77
2023/05/05 09:32:21;;;;;;;12.82;6.88;;;;;;;;;;4949629;28;25069;-77
2023/05/05 09:35:00;;;;;;;11.80;6.78;;;;;;;;;;4952371;28;25068;-80
2023/05/05 09:37:27;;;;;;;12.88;8.10;;;;;;;;;;4950419;28;25110;-78
2023/05/05 09:39:54;;;;;;;13.63;8.18;;;;;;;;;;4950730;28;25060;-77
2023/05/05 09:42:20;;;;;;;18.15;9.70;;;;;;;;;;4949238;28;25110;-76
2023/05/05 09:44:46;;;;;;;14.32;7.20;;;;;;;;;;4947688;28;25071;-75
2023/05/05 09:47:12;;;;;;;13.73;6.35;;;;;;;;;;4947768;28;25075;-74
2023/05/05 09:49:38;;;;;;;12.75;7.15;;;;;;;;;;4948996;28;25050;-75
2023/05/05 09:52:14;;;;;;;16.38;7.10;;;;;;;;;;4955449;28;25061;-75
2023/05/05 09:54:41;;;;;;;14.80;8.07;;;;;;;;;;4962322;28;25151;-75
2023/05/05 09:57:07;;;;;;;12.05;7.10;;;;;;;;;;4949183;28;25073;-78
2023/05/05 09:59:33;;;;;;;11.95;6.75;;;;;;;;;;4949710;28;25088;-75
2023/05/05 10:02:11;;;;;;;18.23;7.68;;;;;;;;;;4948687;28;25057;-75
2023/05/05 10:04:38;;;;;;;18.10;7.65;;;;;;;;;;4948091;28;25110;-75
2023/05/05 10:07:04;;;;;;;13.63;6.60;;;;;;;;;;4954412;28;25053;-76
2023/05/05 10:09:31;;;;;;;15.30;7.28;;;;;;;;;;4950925;28;25089;-74
2023/05/05 10:11:59;;;;;;;12.02;7.57;;;;;;;;;;4949096;28;25059;-76
2023/05/05 10:14:26;;;;;;;17.13;7.72;;;;;;;;;;4947003;28;25066;-76
2023/05/05 10:16:53;;;;;;;18.98;8.13;;;;;;;;;;4948197;28;25053;-75
2023/05/05 10:19:20;;;;;;;14.45;7.88;;;;;;;;;;4949684;28;25078;-75
2023/05/05 10:21:47;;;;;;;12.60;6.65;;;;;;;;;;4950503;28;25082;-76
2023/05/05 10:24:16;;;;;;;12.07;6.97;;;;;;;;;;4963763;28;25070;-75
2023/05/05 10:26:43;;;;;;;18.60;9.40;;;;;;;;;;4956440;28;25069;-75
2023/05/05 10:29:32;;;;;;;15.05;8.27;;;;;;;;;;4960416;28;25079;-76
2023/05/05 10:32:04;;;;;;;16.25;7.20;;;;;;;;;;4948195;28;25071;-75
2023/05/05 10:34:37;;;;;;;14.10;7.28;;;;;;;;;;4947154;28;25054;-76
2023/05/05 10:37:04;;;;;;;13.27;7.60;;;;;;;;;;4948236;28;25118;-77
2023/05/05 10:39:31;;;;;;;13.93;8.15;;;;;;;;;;4951153;28;25074;-74
2023/05/05 10:42:02;;;;;;;11.32;7.45;;;;;;;;;;4946183;28;25112;-76
2023/05/05 10:44:32;;;;;;;12.65;7.53;;;;;;;;;;4947579;28;25055;-75
2023/05/05 10:46:58;;;;;;;12.98;6.82;;;;;;;;;;4947720;28;25067;-75
2023/05/05 10:49:27;;;;;;;13.57;5.80;;;;;;;;;;4950452;28;25099;-76
2023/05/05 10:52:02;;;;;;;11.00;5.43;;;;;;;;;;4956068;28;25117;-77
2023/05/05 10:54:37;;;;;;;9.65;4.55;;;;;;;;;;4956138;28;25073;-76
2023/05/05 10:57:04;;;;;;;11.40;4.80;;;;;;;;;;4952950;28;25053;-76
2023/05/05 10:59:36;;;;;;;13.48;5.20;;;;;;;;;;4954592;28;25074;-75
2023/05/05 11:02:22;;;;;;;13.45;6.55;;;;;;;;;;4951185;28;25051;-76
2023/05/05 11:05:08;;;;;;;13.82;4.90;;;;;;;;;;4945754;28;25129;-75
2023/05/05 11:07:35;;;;;;;10.80;5.10;;;;;;;;;;4945423;28;25091;-75
2023/05/05 11:10:05;;;;;;;8.95;4.32;;;;;;;;;;4958672;28;25146;-76
2023/05/05 11:12:32;;;;;;;11.65;5.55;;;;;;;;;;4956858;28;25145;-75
2023/05/05 11:15:17;;;;;;;16.95;6.68;;;;;;;;;;4962808;28;25101;-74
2023/05/05 11:17:44;;;;;;;15.48;5.93;;;;;;;;;;4953304;28;25134;-74
2023/05/05 11:20:10;;;;;;;12.88;6.72;;;;;;;;;;4947540;28;25128;-75
2023/05/05 11:23:08;;;;;;;13.10;7.20;;;;;;;;;;4964186;28;25066;-75
2023/05/05 11:25:39;;;;;;;16.95;8.18;;;;;;;;;;4954360;28;25062;-73
2023/05/05 11:28:08;;;;;;;17.42;7.43;;;;;;;;;;4951240;28;25110;-75
2023/05/05 11:30:36;;;;;;;14.32;6.57;;;;;;;;;;4947944;28;25065;-74
2023/05/05 11:33:20;;;;;;;17.88;6.95;;;;;;;;;;4958025;28;25107;-75
2023/05/05 11:35:56;;;;;;;14.73;5.95;;;;;;;;;;4946332;28;25067;-76
2023/05/05 11:38:41;;;;;;;8.98;2.90;;;;;;;;;;4945408;28;25068;-76
2023/05/05 11:41:25;;;;;;;9.50;3.30;;;;;;;;;;4956162;28;25113;-76
2023/05/05 11:44:07;;;;;;;8.57;3.13;;;;;;;;;;4940104;28;25072;-74
2023/05/05 11:46:33;;;;;;;5.85;3.10;;;;;;;;;;4947934;28;25134;-76
2023/05/05 11:48:59;;;;;;;5.65;2.30;;;;;;;;;;4959954;28;25064;-77
2023/05/05 11:51:25;;;;;;;8.10;2.00;;;;;;;;;;4958260;28;25152;-76
2023/05/05 11:53:51;;;;;;;6.30;2.08;;;;;;;;;;4952678;28;25113;-76
2023/05/05 11:56:19;;;;;;;3.90;1.90;;;;;;;;;;4954871;28;25069;-77
2023/05/05 11:58:48;;;;;;;7.55;2.42;;;;;;;;;;4950062;28;25058;-77
2023/05/05 12:01:15;;;;;;;6.43;2.72;;;;;;;;;;4956259;28;25052;-77
2023/05/05 12:03:42;;;;;;;4.93;2.60;;;;;;;;;;4954244;28;25126;-75
2023/05/05 12:06:08;;;;;;;6.45;2.30;;;;;;;;;;4960218;28;25077;-76
2023/05/05 12:08:37;;;;;;;7.75;2.40;;;;;;;;;;4952352;28;25154;-77
2023/05/05 12:11:04;;;;;;;3.47;1.60;;;;;;;;;;4951222;28;25071;-75
2023/05/05 12:13:30;;;;;;;6.35;1.80;;;;;;;;;;4950509;28;25070;-75
2023/05/05 12:15:56;;;;;;;3.85;1.70;;;;;;;;;;4950521;28;25069;-73
2023/05/05 12:18:22;;;;;;;8.23;1.40;;;;;;;;;;4963750;28;25135;-74
2023/05/05 12:20:48;;;;;;;6.22;2.00;;;;;;;;;;4951707;28;25062;-75
2023/05/05 12:23:14;;;;;;;4.20;1.48;;;;;;;;;;4955638;28;25157;-73
2023/05/05 12:25:40;;;;;;;5.22;1.50;;;;;;;;;;4949253;28;25046;-73
2023/05/05 12:28:07;;;;;;;4.25;1.48;;;;;;;;;;4949129;28;25062;-73
2023/05/05 12:30:33;;;;;;;7.22;1.75;;;;;;;;;;4957741;28;25079;-73
2023/05/05 12:33:00;;;;;;;4.10;1.50;;;;;;;;;;4949375;28;25068;-74
2023/05/05 12:35:27;;;;;;;4.25;1.50;;;;;;;;;;4950612;28;25108;-74
2023/05/05 12:37:53;;;;;;;2.92;1.45;;;;;;;;;;4950819;28;25082;-74
2023/05/05 12:40:37;;;;;;;6.20;1.95;;;;;;;;;;4955386;28;25079;-74
2023/05/05 12:43:03;;;;;;;4.85;2.05;;;;;;;;;;4949517;28;25076;-73
2023/05/05 12:45:29;;;;;;;5.15;1.42;;;;;;;;;;4953912;28;25157;-72
2023/05/05 12:47:55;;;;;;;5.65;1.58;;;;;;;;;;4954604;28;25066;-76
2023/05/05 12:50:31;;;;;;;2.20;1.30;;;;;;;;;;4958033;28;25052;-73
2023/05/05 12:52:57;;;;;;;3.40;1.40;;;;;;;;;;4958934;28;25069;-75
2023/05/05 12:55:36;;;;;;;5.88;2.47;;;;;;;;;;4951496;28;25142;-73
2023/05/05 12:58:05;;;;;;;4.43;1.73;;;;;;;;;;4949133;28;25107;-76
2023/05/05 13:00:31;;;;;;;5.38;1.90;;;;;;;;;;4962451;28;25110;-74
2023/05/05 13:02:57;;;;;;;2.50;1.40;;;;;;;;;;4952797;28;25060;-76
2023/05/05 13:05:31;;;;;;;2.00;1.20;;;;;;;;;;4949422;28;25069;-75
2023/05/05 13:07:57;;;;;;;3.28;1.30;;;;;;;;;;4952107;28;25070;-75
2023/05/05 13:10:23;;;;;;;2.03;1.35;;;;;;;;;;4957020;28;25115;-76
2023/05/05 13:12:50;;;;;;;5.90;1.63;;;;;;;;;;4950783;28;25128;-77
2023/05/05 13:15:16;;;;;;;2.28;1.80;;;;;;;;;;4952148;28;25146;-76
2023/05/05 13:17:42;;;;;;;3.75;1.67;;;;;;;;;;4956302;28;25074;-75
2023/05/05 13:20:10;;;;;;;9.40;2.10;;;;;;;;;;4958877;28;25053;-77
2023/05/05 13:22:36;;;;;;;3.95;1.73;;;;;;;;;;4949660;28;25067;-75
2023/05/05 13:25:02;;;;;;;4.68;1.95;;;;;;;;;;4955862;28;25073;-75
2023/05/05 13:27:28;;;;;;;8.60;2.40;;;;;;;;;;4949212;28;25119;-79
2023/05/05 13:29:54;;;;;;;6.25;2.42;;;;;;;;;;4959375;28;25140;-75
2023/05/05 13:32:20;;;;;;;6.75;2.15;;;;;;;;;;4951395;28;25056;-76
2023/05/05 13:34:46;;;;;;;6.45;2.10;;;;;;;;;;4948226;28;25075;-74
2023/05/05 13:37:12;;;;;;;8.48;2.58;;;;;;;;;;4951962;28;25049;-76
2023/05/05 13:39:38;;;;;;;5.47;2.45;;;;;;;;;;4958331;28;25136;-76
2023/05/05 13:42:04;;;;;;;4.57;2.60;;;;;;;;;;4953252;28;25058;-76
2023/05/05 13:44:30;;;;;;;7.15;3.28;;;;;;;;;;4952758;28;25130;-76
2023/05/05 13:46:56;;;;;;;5.15;3.00;;;;;;;;;;4949377;28;25089;-75
2023/05/05 13:49:22;;;;;;;7.47;3.58;;;;;;;;;;4949605;28;25044;-76
2023/05/05 13:51:48;;;;;;;8.73;4.03;;;;;;;;;;4949526;28;25073;-75
2023/05/05 13:54:14;;;;;;;10.20;3.85;;;;;;;;;;4948467;28;25049;-76
2023/05/05 13:56:40;;;;;;;9.90;3.83;;;;;;;;;;4948386;28;25174;-75
2023/05/05 13:59:06;;;;;;;3.78;3.00;;;;;;;;;;4949142;28;25080;-75
2023/05/05 14:01:32;;;;;;;4.40;3.40;;;;;;;;;;4949830;28;25051;-77
2023/05/05 14:03:58;;;;;;;5.53;2.72;;;;;;;;;;4948782;28;25070;-76
2023/05/05 14:06:25;;;;;;;5.35;3.30;;;;;;;;;;4949121;28;25065;-77
2023/05/05 14:08:51;;;;;;;4.32;2.67;;;;;;;;;;4949023;28;25142;-77
2023/05/05 14:11:17;;;;;;;3.75;2.15;;;;;;;;;;4953978;28;25055;-77
2023/05/05 14:13:45;;;;;;;1.92;1.40;;;;;;;;;;4952944;28;25090;-77
2023/05/05 14:16:11;;;;;;;5.28;1.83;;;;;;;;;;4952082;28;25066;-76
2023/05/05 14:18:37;;;;;;;3.72;1.30;;;;;;;;;;4949986;28;25073;-77
2023/05/05 14:21:03;;;;;;;4.50;2.47;;;;;;;;;;4949315;28;25095;-78
2023/05/05 14:23:29;;;;;;;2.30;2.08;;;;;;;;;;4950210;28;25060;-77
2023/05/05 14:25:55;;;;;;;3.97;1.90;;;;;;;;;;4951667;28;25049;-76
2023/05/05 14:28:21;;;;;;;3.13;2.20;;;;;;;;;;4952054;28;25152;-75
2023/05/05 14:30:47;;;;;;;4.05;2.10;;;;;;;;;;4974704;28;25060;-77
2023/05/05 14:33:13;;;;;;;3.65;2.50;;;;;;;;;;4968164;28;25055;-77
2023/05/05 14:35:39;;;;;;;6.32;2.40;;;;;;;;;;4953727;28;25048;-76
2023/05/05 14:38:04;;;;;;;4.47;2.03;;;;;;;;;;4956267;28;25068;-77
2023/05/05 14:40:30;;;;;;;3.40;2.10;;;;;;;;;;4959908;28;25083;-77